sensor_id;sensor_type;location;lat;lon;timestamp;pressure;altitude;pressure_sealevel;temperature;humidity
68197;BME280;55019;49.382;11.358;2023-05-01T00:00:04;96716.75;;;9.90;58.49
68197;BME280;55019;49.382;11.358;2023-05-01T00:02:30;96710.59;;;9.83;57.95
68197;BME280;55019;49.382;11.358;2023-05-01T00:04:56;96708.16;;;9.74;58.31
68197;BME280;55019;49.382;11.358;2023-05-01T00:07:22;96706.88;;;9.78;58.50
68197;BME280;55019;49.382;11.358;2023-05-01T00:09:50;96703.50;;;9.77;58.52
68197;BME280;55019;49.382;11.358;2023-05-01T00:12:16;96701.06;;;9.76;58.47
68197;BME280;55019;49.382;11.358;2023-05-01T00:14:41;96695.09;;;9.75;58.23
68197;BME280;55019;49.382;11.358;2023-05-01T00:17:07;96697.69;;;9.75;57.55
68197;BME280;55019;49.382;11.358;2023-05-01T00:19:33;96701.84;;;9.68;57.16
68197;BME280;55019;49.382;11.358;2023-05-01T00:21:59;96692.47;;;9.67;58.68
68197;BME280;55019;49.382;11.358;2023-05-01T00:24:24;96691.19;;;9.63;58.63
68197;BME280;55019;49.382;11.358;2023-05-01T00:26:50;96680.25;;;9.69;58.10
68197;BME280;55019;49.382;11.358;2023-05-01T00:29:16;96687.88;;;9.45;57.71
68197;BME280;55019;49.382;11.358;2023-05-01T00:31:42;96676.63;;;9.54;57.88
68197;BME280;55019;49.382;11.358;2023-05-01T00:34:08;96683.41;;;9.55;57.95
68197;BME280;55019;49.382;11.358;2023-05-01T00:36:35;96678.53;;;9.44;58.77
68197;BME280;55019;49.382;11.358;2023-05-01T00:39:00;96679.16;;;9.46;58.54
68197;BME280;55019;49.382;11.358;2023-05-01T00:41:26;96678.56;;;9.52;59.32
68197;BME280;55019;49.382;11.358;2023-05-01T00:43:52;96679.88;;;9.56;58.54
68197;BME280;55019;49.382;11.358;2023-05-01T00:46:18;96675.84;;;9.62;59.31
68197;BME280;55019;49.382;11.358;2023-05-01T00:48:44;96682.72;;;9.45;59.26
68197;BME280;55019;49.382;11.358;2023-05-01T00:51:11;96671.78;;;9.51;58.20
68197;BME280;55019;49.382;11.358;2023-05-01T00:53:39;96664.88;;;9.60;58.75
68197;BME280;55019;49.382;11.358;2023-05-01T00:56:06;96658.38;;;9.48;59.22
68197;BME280;55019;49.382;11.358;2023-05-01T00:58:31;96665.34;;;9.55;58.07
68197;BME280;55019;49.382;11.358;2023-05-01T01:00:57;96656.66;;;9.56;59.30
68197;BME280;55019;49.382;11.358;2023-05-01T01:03:23;96653.75;;;9.59;58.44
68197;BME280;55019;49.382;11.358;2023-05-01T01:08:43;96659.59;;;9.69;58.02
68197;BME280;55019;49.382;11.358;2023-05-01T01:11:16;96648.28;;;9.62;58.38
68197;BME280;55019;49.382;11.358;2023-05-01T01:13:59;96648.91;;;9.56;58.46
68197;BME280;55019;49.382;11.358;2023-05-01T01:21:48;96632.63;;;9.56;58.80
68197;BME280;55019;49.382;11.358;2023-05-01T01:26:50;96621.09;;;9.42;59.67
68197;BME280;55019;49.382;11.358;2023-05-01T01:29:43;96620.09;;;9.35;59.77
68197;BME280;55019;49.382;11.358;2023-05-01T01:35:04;96619.72;;;9.22;60.11
68197;BME280;55019;49.382;11.358;2023-05-01T01:37:39;96616.94;;;9.16;60.24
68197;BME280;55019;49.382;11.358;2023-05-01T01:40:10;96617.47;;;9.19;60.19
68197;BME280;55019;49.382;11.358;2023-05-01T01:42:42;96618.28;;;9.20;61.39
68197;BME280;55019;49.382;11.358;2023-05-01T01:45:16;96621.66;;;9.20;60.49
68197;BME280;55019;49.382;11.358;2023-05-01T01:47:44;96621.25;;;9.07;60.46
68197;BME280;55019;49.382;11.358;2023-05-01T01:50:11;96614.50;;;9.06;61.00
68197;BME280;55019;49.382;11.358;2023-05-01T01:52:41;96618.53;;;9.09;61.24
68197;BME280;55019;49.382;11.358;2023-05-01T01:55:10;96615.81;;;9.10;61.81
68197;BME280;55019;49.382;11.358;2023-05-01T01:57:37;96618.66;;;8.99;61.86
68197;BME280;55019;49.382;11.358;2023-05-01T02:00:05;96613.06;;;8.86;62.60
68197;BME280;55019;49.382;11.358;2023-05-01T02:02:39;96605.81;;;8.82;62.33
68197;BME280;55019;49.382;11.358;2023-05-01T02:05:12;96610.84;;;8.91;62.03
68197;BME280;55019;49.382;11.358;2023-05-01T02:07:39;96612.38;;;8.76;62.67
68197;BME280;55019;49.382;11.358;2023-05-01T02:10:11;96615.72;;;8.69;63.29
68197;BME280;55019;49.382;11.358;2023-05-01T02:12:39;96617.50;;;8.51;62.85
68197;BME280;55019;49.382;11.358;2023-05-01T02:15:06;96609.03;;;8.58;62.85
68197;BME280;55019;49.382;11.358;2023-05-01T02:17:35;96606.09;;;8.54;64.16
68197;BME280;55019;49.382;11.358;2023-05-01T02:20:01;96601.78;;;8.62;62.55
68197;BME280;55019;49.382;11.358;2023-05-01T02:22:28;96593.34;;;8.52;62.86
68197;BME280;55019;49.382;11.358;2023-05-01T02:24:55;96600.22;;;8.44;63.47
68197;BME280;55019;49.382;11.358;2023-05-01T02:27:27;96595.09;;;8.44;62.76
68197;BME280;55019;49.382;11.358;2023-05-01T02:29:55;96596.69;;;8.45;63.09
68197;BME280;55019;49.382;11.358;2023-05-01T02:32:22;96589.03;;;8.53;62.98
68197;BME280;55019;49.382;11.358;2023-05-01T02:34:48;96592.25;;;8.55;62.58
68197;BME280;55019;49.382;11.358;2023-05-01T02:37:14;96592.09;;;8.56;62.66
68197;BME280;55019;49.382;11.358;2023-05-01T02:39:42;96588.25;;;8.60;62.44
68197;BME280;55019;49.382;11.358;2023-05-01T02:42:09;96587.78;;;8.39;61.64
68197;BME280;55019;49.382;11.358;2023-05-01T02:44:47;96576.31;;;8.34;62.04
68197;BME280;55019;49.382;11.358;2023-05-01T02:47:17;96571.41;;;8.23;62.04
68197;BME280;55019;49.382;11.358;2023-05-01T02:49:45;96579.69;;;8.17;62.26
68197;BME280;55019;49.382;11.358;2023-05-01T02:52:14;96563.31;;;8.18;62.59
68197;BME280;55019;49.382;11.358;2023-05-01T02:54:42;96569.34;;;8.09;62.19
68197;BME280;55019;49.382;11.358;2023-05-01T02:57:13;96560.88;;;7.99;62.83
68197;BME280;55019;49.382;11.358;2023-05-01T02:59:38;96571.06;;;7.91;62.98
68197;BME280;55019;49.382;11.358;2023-05-01T03:02:07;96572.44;;;7.95;63.16
68197;BME280;55019;49.382;11.358;2023-05-01T03:04:33;96570.16;;;7.92;63.98
68197;BME280;55019;49.382;11.358;2023-05-01T03:06:59;96573.38;;;7.94;63.67
68197;BME280;55019;49.382;11.358;2023-05-01T03:09:25;96578.31;;;8.05;63.44
68197;BME280;55019;49.382;11.358;2023-05-01T03:11:50;96571.00;;;8.00;63.38
68197;BME280;55019;49.382;11.358;2023-05-01T03:14:16;96568.91;;;7.96;63.47
68197;BME280;55019;49.382;11.358;2023-05-01T03:16:42;96557.66;;;7.97;63.73
68197;BME280;55019;49.382;11.358;2023-05-01T03:19:08;96564.41;;;7.80;63.38
68197;BME280;55019;49.382;11.358;2023-05-01T03:21:34;96565.78;;;7.75;64.23
68197;BME280;55019;49.382;11.358;2023-05-01T03:24:02;96555.16;;;8.05;63.98
68197;BME280;55019;49.382;11.358;2023-05-01T03:26:29;96565.22;;;7.98;63.66
68197;BME280;55019;49.382;11.358;2023-05-01T03:28:54;96555.38;;;7.94;63.59
68197;BME280;55019;49.382;11.358;2023-05-01T03:31:20;96561.03;;;7.97;63.89
68197;BME280;55019;49.382;11.358;2023-05-01T03:33:47;96559.75;;;7.84;63.60
68197;BME280;55019;49.382;11.358;2023-05-01T03:36:14;96556.75;;;7.71;63.45
68197;BME280;55019;49.382;11.358;2023-05-01T03:38:42;96544.91;;;7.78;64.11
68197;BME280;55019;49.382;11.358;2023-05-01T03:41:07;96550.50;;;7.91;64.87
68197;BME280;55019;49.382;11.358;2023-05-01T03:43:52;96546.25;;;7.82;64.42
68197;BME280;55019;49.382;11.358;2023-05-01T03:46:44;96543.94;;;7.61;65.15
68197;BME280;55019;49.382;11.358;2023-05-01T03:49:15;96538.16;;;7.77;65.03
68197;BME280;55019;49.382;11.358;2023-05-01T03:51:45;96537.97;;;7.70;63.47
68197;BME280;55019;49.382;11.358;2023-05-01T03:54:12;96529.72;;;7.67;64.74
68197;BME280;55019;49.382;11.358;2023-05-01T03:56:53;96535.06;;;7.56;65.15
68197;BME280;55019;49.382;11.358;2023-05-01T03:59:19;96538.38;;;7.83;65.41
68197;BME280;55019;49.382;11.358;2023-05-01T04:01:45;96537.78;;;7.72;64.77
68197;BME280;55019;49.382;11.358;2023-05-01T04:04:11;96530.97;;;7.63;65.02
68197;BME280;55019;49.382;11.358;2023-05-01T04:06:40;96536.41;;;7.60;64.23
68197;BME280;55019;49.382;11.358;2023-05-01T04:09:06;96533.59;;;7.71;65.46
68197;BME280;55019;49.382;11.358;2023-05-01T04:11:32;96532.28;;;7.67;65.88
68197;BME280;55019;49.382;11.358;2023-05-01T04:13:58;96525.97;;;7.79;65.82
68197;BME280;55019;49.382;11.358;2023-05-01T04:16:24;96529.06;;;7.82;65.21
68197;BME280;55019;49.382;11.358;2023-05-01T04:18:49;96526.63;;;7.81;64.80
68197;BME280;55019;49.382;11.358;2023-05-01T04:21:16;96526.31;;;7.84;64.95
68197;BME280;55019;49.382;11.358;2023-05-01T04:23:44;96526.31;;;7.84;64.83
68197;BME280;55019;49.382;11.358;2023-05-01T04:26:10;96525.72;;;7.90;64.61
68197;BME280;55019;49.382;11.358;2023-05-01T04:28:36;96513.09;;;7.79;64.35
68197;BME280;55019;49.382;11.358;2023-05-01T04:31:03;96525.16;;;7.78;64.59
68197;BME280;55019;49.382;11.358;2023-05-01T04:33:28;96519.84;;;7.80;64.65
68197;BME280;55019;49.382;11.358;2023-05-01T04:35:54;96526.84;;;7.70;64.24
68197;BME280;55019;49.382;11.358;2023-05-01T04:38:20;96520.44;;;7.74;64.76
68197;BME280;55019;49.382;11.358;2023-05-01T04:40:47;96519.06;;;7.79;63.92
68197;BME280;55019;49.382;11.358;2023-05-01T04:43:13;96525.59;;;7.91;64.01
68197;BME280;55019;49.382;11.358;2023-05-01T04:45:39;96529.00;;;7.92;63.67
68197;BME280;55019;49.382;11.358;2023-05-01T04:48:05;96523.91;;;8.00;62.75
68197;BME280;55019;49.382;11.358;2023-05-01T04:50:31;96530.97;;;7.98;63.30
68197;BME280;55019;49.382;11.358;2023-05-01T04:52:57;96526.53;;;8.08;63.35
68197;BME280;55019;49.382;11.358;2023-05-01T04:55:23;96535.81;;;8.01;64.09
68197;BME280;55019;49.382;11.358;2023-05-01T04:58:07;96532.66;;;8.07;63.72
68197;BME280;55019;49.382;11.358;2023-05-01T05:00:34;96528.91;;;8.19;63.11
68197;BME280;55019;49.382;11.358;2023-05-01T05:03:01;96528.00;;;8.28;62.89
68197;BME280;55019;49.382;11.358;2023-05-01T05:05:27;96534.13;;;8.27;62.98
68197;BME280;55019;49.382;11.358;2023-05-01T05:07:52;96535.66;;;8.20;62.90
68197;BME280;55019;49.382;11.358;2023-05-01T05:10:29;96525.94;;;8.14;62.91
68197;BME280;55019;49.382;11.358;2023-05-01T05:13:09;96517.22;;;8.24;62.59
68197;BME280;55019;49.382;11.358;2023-05-01T05:15:36;96527.56;;;8.15;62.48
68197;BME280;55019;49.382;11.358;2023-05-01T05:18:03;96508.25;;;8.28;62.87
68197;BME280;55019;49.382;11.358;2023-05-01T05:20:31;96512.56;;;8.28;61.98
68197;BME280;55019;49.382;11.358;2023-05-01T05:22:57;96511.72;;;8.45;61.98
68197;BME280;55019;49.382;11.358;2023-05-01T05:25:23;96508.59;;;8.33;61.53
68197;BME280;55019;49.382;11.358;2023-05-01T05:27:49;96495.16;;;8.47;63.41
68197;BME280;55019;49.382;11.358;2023-05-01T05:30:15;96506.09;;;8.74;61.89
68197;BME280;55019;49.382;11.358;2023-05-01T05:32:42;96510.16;;;8.77;60.85
68197;BME280;55019;49.382;11.358;2023-05-01T05:35:08;96513.84;;;8.82;61.13
68197;BME280;55019;49.382;11.358;2023-05-01T05:37:34;96510.41;;;8.99;61.00
68197;BME280;55019;49.382;11.358;2023-05-01T05:40:00;96505.50;;;8.88;60.46
68197;BME280;55019;49.382;11.358;2023-05-01T05:42:33;96506.69;;;8.94;60.99
68197;BME280;55019;49.382;11.358;2023-05-01T05:45:04;96503.31;;;8.93;60.20
68197;BME280;55019;49.382;11.358;2023-05-01T05:47:29;96505.66;;;9.28;60.79
68197;BME280;55019;49.382;11.358;2023-05-01T05:49:58;96513.69;;;9.17;60.38
68197;BME280;55019;49.382;11.358;2023-05-01T05:52:24;96513.03;;;9.07;59.54
68197;BME280;55019;49.382;11.358;2023-05-01T05:54:50;96507.78;;;9.25;60.34
68197;BME280;55019;49.382;11.358;2023-05-01T05:57:17;96509.88;;;9.37;59.94
68197;BME280;55019;49.382;11.358;2023-05-01T05:59:47;96502.69;;;9.65;59.73
68197;BME280;55019;49.382;11.358;2023-05-01T06:02:17;96503.97;;;9.61;58.78
68197;BME280;55019;49.382;11.358;2023-05-01T06:04:43;96506.28;;;9.80;58.78
68197;BME280;55019;49.382;11.358;2023-05-01T06:07:09;96497.56;;;9.97;58.56
68197;BME280;55019;49.382;11.358;2023-05-01T06:09:35;96501.63;;;10.15;57.94
68197;BME280;55019;49.382;11.358;2023-05-01T06:12:01;96501.28;;;10.34;57.33
68197;BME280;55019;49.382;11.358;2023-05-01T06:14:32;96493.53;;;10.34;56.99
68197;BME280;55019;49.382;11.358;2023-05-01T06:16:57;96481.78;;;10.31;56.76
68197;BME280;55019;49.382;11.358;2023-05-01T06:19:23;96492.69;;;10.73;56.58
68197;BME280;55019;49.382;11.358;2023-05-01T06:21:54;96490.22;;;10.80;55.35
68197;BME280;55019;49.382;11.358;2023-05-01T06:24:20;96490.50;;;11.01;55.41
68197;BME280;55019;49.382;11.358;2023-05-01T06:26:48;96472.41;;;11.31;55.01
68197;BME280;55019;49.382;11.358;2023-05-01T06:29:14;96476.00;;;11.52;54.29
68197;BME280;55019;49.382;11.358;2023-05-01T06:31:39;96468.31;;;11.89;54.64
68197;BME280;55019;49.382;11.358;2023-05-01T06:34:05;96468.09;;;11.99;53.01
68197;BME280;55019;49.382;11.358;2023-05-01T06:36:42;96463.94;;;12.12;53.14
68197;BME280;55019;49.382;11.358;2023-05-01T06:39:07;96470.53;;;12.00;51.95
68197;BME280;55019;49.382;11.358;2023-05-01T06:41:33;96469.63;;;12.08;53.18
68197;BME280;55019;49.382;11.358;2023-05-01T06:44:00;96462.03;;;12.43;52.71
68197;BME280;55019;49.382;11.358;2023-05-01T06:46:26;96461.88;;;12.59;52.11
68197;BME280;55019;49.382;11.358;2023-05-01T06:48:52;96462.28;;;12.34;51.17
68197;BME280;55019;49.382;11.358;2023-05-01T06:51:18;96469.28;;;12.48;52.17
68197;BME280;55019;49.382;11.358;2023-05-01T06:53:44;96461.16;;;13.08;52.90
68197;BME280;55019;49.382;11.358;2023-05-01T06:56:10;96457.72;;;13.37;49.49
68197;BME280;55019;49.382;11.358;2023-05-01T06:58:36;96455.78;;;13.60;50.47
68197;BME280;55019;49.382;11.358;2023-05-01T07:01:01;96453.88;;;14.31;48.88
68197;BME280;55019;49.382;11.358;2023-05-01T07:03:27;96453.81;;;14.25;47.38
68197;BME280;55019;49.382;11.358;2023-05-01T07:05:53;96455.47;;;14.59;47.08
68197;BME280;55019;49.382;11.358;2023-05-01T07:08:19;96455.59;;;14.51;47.25
68197;BME280;55019;49.382;11.358;2023-05-01T07:10:45;96457.72;;;14.42;47.15
68197;BME280;55019;49.382;11.358;2023-05-01T07:13:11;96460.16;;;14.77;47.64
68197;BME280;55019;49.382;11.358;2023-05-01T07:15:37;96448.97;;;14.76;46.98
68197;BME280;55019;49.382;11.358;2023-05-01T07:18:03;96439.41;;;14.83;46.23
68197;BME280;55019;49.382;11.358;2023-05-01T07:20:32;96439.16;;;15.19;46.93
68197;BME280;55019;49.382;11.358;2023-05-01T07:23:01;96442.19;;;15.22;47.71
68197;BME280;55019;49.382;11.358;2023-05-01T07:25:28;96442.53;;;15.60;48.54
68197;BME280;55019;49.382;11.358;2023-05-01T07:27:54;96442.88;;;15.31;45.94
68197;BME280;55019;49.382;11.358;2023-05-01T07:30:20;96442.09;;;15.50;45.96
68197;BME280;55019;49.382;11.358;2023-05-01T07:35:55;96442.94;;;14.76;46.22
68197;BME280;55019;49.382;11.358;2023-05-01T07:38:21;96438.78;;;14.81;46.70
68197;BME280;55019;49.382;11.358;2023-05-01T07:40:47;96430.44;;;14.92;47.20
68197;BME280;55019;49.382;11.358;2023-05-01T07:43:12;96436.91;;;15.56;44.56
68197;BME280;55019;49.382;11.358;2023-05-01T07:45:38;96429.63;;;15.32;45.14
68197;BME280;55019;49.382;11.358;2023-05-01T07:48:04;96441.97;;;15.24;44.56
68197;BME280;55019;49.382;11.358;2023-05-01T07:50:30;96433.25;;;14.57;44.92
68197;BME280;55019;49.382;11.358;2023-05-01T07:52:56;96441.50;;;14.67;46.45
68197;BME280;55019;49.382;11.358;2023-05-01T07:55:23;96426.66;;;15.01;46.01
68197;BME280;55019;49.382;11.358;2023-05-01T07:57:49;96423.75;;;14.43;45.66
68197;BME280;55019;49.382;11.358;2023-05-01T08:00:15;96424.41;;;14.03;47.76
68197;BME280;55019;49.382;11.358;2023-05-01T08:02:41;96417.03;;;14.28;47.18
68197;BME280;55019;49.382;11.358;2023-05-01T08:05:07;96411.09;;;14.34;48.16
68197;BME280;55019;49.382;11.358;2023-05-01T08:07:33;96417.81;;;14.22;46.48
68197;BME280;55019;49.382;11.358;2023-05-01T08:09:59;96430.31;;;14.66;47.73
68197;BME280;55019;49.382;11.358;2023-05-01T08:12:25;96430.19;;;14.20;45.84
68197;BME280;55019;49.382;11.358;2023-05-01T08:14:51;96431.19;;;14.46;48.34
68197;BME280;55019;49.382;11.358;2023-05-01T08:17:17;96426.78;;;15.27;47.62
68197;BME280;55019;49.382;11.358;2023-05-01T08:19:43;96426.75;;;15.14;45.36
68197;BME280;55019;49.382;11.358;2023-05-01T08:22:10;96428.28;;;14.35;46.45
68197;BME280;55019;49.382;11.358;2023-05-01T08:24:37;96430.34;;;14.45;46.59
68197;BME280;55019;49.382;11.358;2023-05-01T08:27:03;96428.31;;;14.68;46.37
68197;BME280;55019;49.382;11.358;2023-05-01T08:29:29;96427.06;;;14.31;46.89
68197;BME280;55019;49.382;11.358;2023-05-01T08:31:57;96431.06;;;14.60;47.63
68197;BME280;55019;49.382;11.358;2023-05-01T08:34:23;96434.97;;;14.77;46.44
68197;BME280;55019;49.382;11.358;2023-05-01T08:36:49;96428.47;;;14.60;45.59
68197;BME280;55019;49.382;11.358;2023-05-01T08:39:14;96434.16;;;14.16;45.83
68197;BME280;55019;49.382;11.358;2023-05-01T08:41:45;96420.34;;;13.94;47.47
68197;BME280;55019;49.382;11.358;2023-05-01T08:44:13;96429.31;;;14.13;48.13
68197;BME280;55019;49.382;11.358;2023-05-01T08:49:27;96425.66;;;14.62;45.34
68197;BME280;55019;49.382;11.358;2023-05-01T08:51:53;96424.31;;;14.39;46.17
68197;BME280;55019;49.382;11.358;2023-05-01T08:54:21;96426.75;;;14.40;47.04
68197;BME280;55019;49.382;11.358;2023-05-01T08:56:49;96424.88;;;14.07;47.05
68197;BME280;55019;49.382;11.358;2023-05-01T08:59:17;96427.00;;;14.24;46.69
68197;BME280;55019;49.382;11.358;2023-05-01T09:01:45;96422.16;;;14.42;48.02
68197;BME280;55019;49.382;11.358;2023-05-01T09:04:12;96422.66;;;14.04;47.62
68197;BME280;55019;49.382;11.358;2023-05-01T09:06:39;96422.06;;;14.08;47.56
68197;BME280;55019;49.382;11.358;2023-05-01T09:09:05;96425.56;;;13.94;48.33
68197;BME280;55019;49.382;11.358;2023-05-01T09:11:30;96424.38;;;14.18;48.36
68197;BME280;55019;49.382;11.358;2023-05-01T09:13:57;96415.47;;;13.85;48.43
68197;BME280;55019;49.382;11.358;2023-05-01T09:16:24;96421.50;;;14.13;48.00
68197;BME280;55019;49.382;11.358;2023-05-01T09:18:50;96432.38;;;14.02;47.04
68197;BME280;55019;49.382;11.358;2023-05-01T09:21:16;96415.63;;;13.56;48.69
68197;BME280;55019;49.382;11.358;2023-05-01T09:23:42;96425.63;;;13.80;48.60
68197;BME280;55019;49.382;11.358;2023-05-01T09:26:08;96422.03;;;13.81;48.36
68197;BME280;55019;49.382;11.358;2023-05-01T09:31:26;96425.63;;;13.80;49.14
68197;BME280;55019;49.382;11.358;2023-05-01T09:34:04;96434.63;;;14.05;48.12
68197;BME280;55019;49.382;11.358;2023-05-01T09:36:31;96425.56;;;13.94;48.36
68197;BME280;55019;49.382;11.358;2023-05-01T09:38:57;96429.78;;;14.02;47.45
68197;BME280;55019;49.382;11.358;2023-05-01T09:41:22;96436.34;;;13.98;47.54
68197;BME280;55019;49.382;11.358;2023-05-01T09:43:50;96423.66;;;14.09;48.25
68197;BME280;55019;49.382;11.358;2023-05-01T09:46:16;96421.09;;;14.37;48.89
68197;BME280;55019;49.382;11.358;2023-05-01T09:49:00;96427.78;;;14.79;48.55
68197;BME280;55019;49.382;11.358;2023-05-01T09:51:31;96421.06;;;15.04;47.10
68197;BME280;55019;49.382;11.358;2023-05-01T09:54:01;96421.94;;;14.43;45.85
68197;BME280;55019;49.382;11.358;2023-05-01T09:56:30;96427.38;;;14.48;46.63
68197;BME280;55019;49.382;11.358;2023-05-01T09:58:58;96427.88;;;14.58;47.37
68197;BME280;55019;49.382;11.358;2023-05-01T10:01:41;96434.69;;;15.00;46.92
68197;BME280;55019;49.382;11.358;2023-05-01T10:04:07;96427.63;;;14.26;46.89
68197;BME280;55019;49.382;11.358;2023-05-01T10:06:34;96426.59;;;14.21;46.52
68197;BME280;55019;49.382;11.358;2023-05-01T10:09:02;96430.31;;;13.91;49.30
68197;BME280;55019;49.382;11.358;2023-05-01T10:11:28;96428.06;;;14.09;48.28
68197;BME280;55019;49.382;11.358;2023-05-01T10:14:09;96423.03;;;13.80;47.42
68197;BME280;55019;49.382;11.358;2023-05-01T10:16:36;96426.16;;;13.75;48.26
68197;BME280;55019;49.382;11.358;2023-05-01T10:19:03;96439.09;;;13.90;48.06
68197;BME280;55019;49.382;11.358;2023-05-01T10:21:30;96428.00;;;14.02;48.13
68197;BME280;55019;49.382;11.358;2023-05-01T10:24:03;96423.38;;;14.19;47.92
68197;BME280;55019;49.382;11.358;2023-05-01T10:26:32;96437.22;;;14.26;49.17
68197;BME280;55019;49.382;11.358;2023-05-01T10:28:59;96431.22;;;13.62;48.27
68197;BME280;55019;49.382;11.358;2023-05-01T10:31:26;96426.41;;;13.59;49.56
68197;BME280;55019;49.382;11.358;2023-05-01T10:33:56;96425.47;;;13.88;50.30
68197;BME280;55019;49.382;11.358;2023-05-01T10:36:39;96434.38;;;14.21;49.01
68197;BME280;55019;49.382;11.358;2023-05-01T10:39:33;96427.81;;;14.52;48.77
68197;BME280;55019;49.382;11.358;2023-05-01T10:42:03;96432.16;;;14.18;47.93
68197;BME280;55019;49.382;11.358;2023-05-01T10:44:30;96426.72;;;14.13;48.22
68197;BME280;55019;49.382;11.358;2023-05-01T10:46:56;96428.75;;;13.54;49.36
68197;BME280;55019;49.382;11.358;2023-05-01T10:49:22;96429.81;;;13.60;51.01
68197;BME280;55019;49.382;11.358;2023-05-01T10:54:29;96424.31;;;13.13;51.52
68197;BME280;55019;49.382;11.358;2023-05-01T10:56:56;96428.78;;;13.19;51.69
68197;BME280;55019;49.382;11.358;2023-05-01T10:59:23;96426.66;;;13.08;52.32
68197;BME280;55019;49.382;11.358;2023-05-01T11:01:50;96424.78;;;13.02;54.25
68197;BME280;55019;49.382;11.358;2023-05-01T11:12:06;96411.75;;;12.96;56.88
68197;BME280;55019;49.382;11.358;2023-05-01T11:20:09;96410.94;;;12.52;62.17
68197;BME280;55019;49.382;11.358;2023-05-01T11:22:38;96417.47;;;12.77;64.92
68197;BME280;55019;49.382;11.358;2023-05-01T11:25:21;96416.47;;;12.63;64.22
68197;BME280;55019;49.382;11.358;2023-05-01T11:27:51;96411.19;;;12.57;67.09
68197;BME280;55019;49.382;11.358;2023-05-01T11:30:17;96403.41;;;12.42;66.64
68197;BME280;55019;49.382;11.358;2023-05-01T11:32:44;96418.69;;;12.52;71.47
68197;BME280;55019;49.382;11.358;2023-05-01T11:35:24;96410.03;;;11.79;74.95
68197;BME280;55019;49.382;11.358;2023-05-01T11:37:53;96412.03;;;11.39;78.91
68197;BME280;55019;49.382;11.358;2023-05-01T11:40:27;96414.44;;;11.18;83.20
68197;BME280;55019;49.382;11.358;2023-05-01T11:43:13;96406.75;;;11.10;86.59
68197;BME280;55019;49.382;11.358;2023-05-01T11:45:38;96414.19;;;11.05;85.40
68197;BME280;55019;49.382;11.358;2023-05-01T11:48:13;96415.00;;;11.05;90.06
68197;BME280;55019;49.382;11.358;2023-05-01T11:50:39;96427.22;;;10.81;91.11
68197;BME280;55019;49.382;11.358;2023-05-01T11:53:12;96417.47;;;10.99;93.65
68197;BME280;55019;49.382;11.358;2023-05-01T11:55:43;96423.41;;;10.69;94.39
68197;BME280;55019;49.382;11.358;2023-05-01T11:58:10;96421.19;;;10.58;96.51
68197;BME280;55019;49.382;11.358;2023-05-01T12:00:38;96424.41;;;10.60;97.80
68197;BME280;55019;49.382;11.358;2023-05-01T12:03:09;96426.81;;;10.61;95.85
68197;BME280;55019;49.382;11.358;2023-05-01T12:05:37;96423.56;;;10.67;96.49
68197;BME280;55019;49.382;11.358;2023-05-01T12:08:30;96419.84;;;10.70;97.16
68197;BME280;55019;49.382;11.358;2023-05-01T12:10:56;96422.81;;;10.43;98.54
68197;BME280;55019;49.382;11.358;2023-05-01T12:13:25;96434.69;;;10.21;99.80
68197;BME280;55019;49.382;11.358;2023-05-01T12:15:53;96413.53;;;10.18;100.00
68197;BME280;55019;49.382;11.358;2023-05-01T12:18:19;96434.41;;;10.63;100.00
68197;BME280;55019;49.382;11.358;2023-05-01T12:20:51;96431.28;;;11.14;100.00
68197;BME280;55019;49.382;11.358;2023-05-01T12:23:18;96433.19;;;11.20;100.00
68197;BME280;55019;49.382;11.358;2023-05-01T12:25:45;96430.31;;;11.15;99.90
68197;BME280;55019;49.382;11.358;2023-05-01T12:28:18;96431.06;;;11.45;98.71
68197;BME280;55019;49.382;11.358;2023-05-01T12:30:46;96438.03;;;11.45;99.14
68197;BME280;55019;49.382;11.358;2023-05-01T12:33:14;96431.56;;;11.19;97.35
68197;BME280;55019;49.382;11.358;2023-05-01T12:35:41;96434.59;;;11.22;96.75
68197;BME280;55019;49.382;11.358;2023-05-01T12:40:38;96430.47;;;10.75;98.04
68197;BME280;55019;49.382;11.358;2023-05-01T12:43:04;96418.75;;;10.95;95.08
68197;BME280;55019;49.382;11.358;2023-05-01T12:45:37;96429.38;;;11.08;94.44
68197;BME280;55019;49.382;11.358;2023-05-01T12:48:10;96431.69;;;10.95;96.66
68197;BME280;55019;49.382;11.358;2023-05-01T12:50:36;96437.81;;;10.94;97.26
68197;BME280;55019;49.382;11.358;2023-05-01T12:53:02;96422.16;;;11.26;96.73
68197;BME280;55019;49.382;11.358;2023-05-01T12:55:30;96433.66;;;11.23;95.66
68197;BME280;55019;49.382;11.358;2023-05-01T12:57:58;96417.47;;;11.51;96.93
68197;BME280;55019;49.382;11.358;2023-05-01T13:00:24;96415.78;;;11.66;94.24
68197;BME280;55019;49.382;11.358;2023-05-01T13:02:50;96421.69;;;11.44;91.05
68197;BME280;55019;49.382;11.358;2023-05-01T13:05:16;96427.34;;;11.48;95.69
68197;BME280;55019;49.382;11.358;2023-05-01T13:07:47;96424.88;;;11.62;94.50
68197;BME280;55019;49.382;11.358;2023-05-01T13:10:13;96420.25;;;11.72;94.61
68197;BME280;55019;49.382;11.358;2023-05-01T13:12:43;96421.13;;;11.35;91.48
68197;BME280;55019;49.382;11.358;2023-05-01T13:15:18;96418.81;;;11.40;91.86
68197;BME280;55019;49.382;11.358;2023-05-01T13:17:48;96414.25;;;11.49;92.17
68197;BME280;55019;49.382;11.358;2023-05-01T13:20:13;96415.25;;;11.41;90.77
68197;BME280;55019;49.382;11.358;2023-05-01T13:22:39;96409.09;;;12.09;89.85
68197;BME280;55019;49.382;11.358;2023-05-01T13:25:17;96412.63;;;12.45;86.92
68197;BME280;55019;49.382;11.358;2023-05-01T13:27:49;96405.19;;;12.85;86.00
68197;BME280;55019;49.382;11.358;2023-05-01T13:30:31;96406.56;;;12.96;82.80
68197;BME280;55019;49.382;11.358;2023-05-01T13:32:57;96408.44;;;13.58;84.12
68197;BME280;55019;49.382;11.358;2023-05-01T13:35:26;96396.19;;;13.73;82.91
68197;BME280;55019;49.382;11.358;2023-05-01T13:37:52;96394.22;;;13.75;79.29
68197;BME280;55019;49.382;11.358;2023-05-01T13:40:19;96406.69;;;14.07;74.28